Maldives Meteorological Service

METAR

Station
VRMM
METAR VRMM 200700Z 06014KT 9000 SCT018 31/22 Q1011 NOSIG=
VRMH
METAR VRMH 200700Z 29003KT 7000 FEW018 31/24 Q1011=
VRMK
METAR VRMK 200700Z 01007KT 9000 FEW018 BKN280 31/23 Q1010=
VRMT
METAR VRMT 200700Z 04005KT 9000 FEW018TCU SCT270 31/26 Q1010=
VRMG
METAR VRMG 200700Z 04006KT 9999 FEW017 BKN260 31/26 Q1010 TEMPO 5000 -SHRA=
Last Updated : 2018-02-20 12:01:45

SPECI

Station
VRMM
VRMH
VRMK
VRMT
VRMG
Last Updated : 2018-02-20 12:01:45